sensor_id;sensor_type;location;lat;lon;timestamp;P1;durP1;ratioP1;P2;durP2;ratioP2
62941;SDS011;49042;47.318;19.874;2024-01-30T00:00:29;84.72;;;47.17;;
62941;SDS011;49042;47.318;19.874;2024-01-30T00:03:30;86.35;;;46.92;;
62941;SDS011;49042;47.318;19.874;2024-01-30T00:06:32;79.53;;;45.47;;
62941;SDS011;49042;47.318;19.874;2024-01-30T00:09:34;91.22;;;48.83;;
62941;SDS011;49042;47.318;19.874;2024-01-30T00:12:36;95.15;;;52.72;;
62941;SDS011;49042;47.318;19.874;2024-01-30T00:15:38;97.57;;;50.92;;
62941;SDS011;49042;47.318;19.874;2024-01-30T00:18:40;97.93;;;52.72;;
62941;SDS011;49042;47.318;19.874;2024-01-30T00:21:42;99.53;;;53.47;;
62941;SDS011;49042;47.318;19.874;2024-01-30T00:24:43;101.10;;;54.97;;
62941;SDS011;49042;47.318;19.874;2024-01-30T00:27:45;98.80;;;53.22;;
62941;SDS011;49042;47.318;19.874;2024-01-30T00:30:47;103.43;;;53.28;;
62941;SDS011;49042;47.318;19.874;2024-01-30T00:33:49;100.45;;;55.90;;
62941;SDS011;49042;47.318;19.874;2024-01-30T00:36:51;108.72;;;56.67;;
62941;SDS011;49042;47.318;19.874;2024-01-30T00:39:52;99.43;;;53.42;;
62941;SDS011;49042;47.318;19.874;2024-01-30T00:42:54;95.85;;;51.58;;
62941;SDS011;49042;47.318;19.874;2024-01-30T00:45:56;97.90;;;52.05;;
62941;SDS011;49042;47.318;19.874;2024-01-30T00:48:58;94.13;;;51.53;;
62941;SDS011;49042;47.318;19.874;2024-01-30T00:52:00;93.87;;;49.05;;
62941;SDS011;49042;47.318;19.874;2024-01-30T00:55:02;91.75;;;49.03;;
62941;SDS011;49042;47.318;19.874;2024-01-30T00:58:04;93.90;;;47.67;;
62941;SDS011;49042;47.318;19.874;2024-01-30T01:01:06;85.90;;;44.72;;
62941;SDS011;49042;47.318;19.874;2024-01-30T01:04:09;98.32;;;50.60;;
62941;SDS011;49042;47.318;19.874;2024-01-30T01:07:11;99.22;;;50.83;;
62941;SDS011;49042;47.318;19.874;2024-01-30T01:10:13;93.57;;;46.00;;
62941;SDS011;49042;47.318;19.874;2024-01-30T01:13:15;84.25;;;46.72;;
62941;SDS011;49042;47.318;19.874;2024-01-30T01:16:17;88.07;;;45.95;;
62941;SDS011;49042;47.318;19.874;2024-01-30T01:19:19;93.22;;;48.63;;
62941;SDS011;49042;47.318;19.874;2024-01-30T01:22:21;90.97;;;47.55;;
62941;SDS011;49042;47.318;19.874;2024-01-30T01:25:22;97.30;;;49.17;;
62941;SDS011;49042;47.318;19.874;2024-01-30T01:28:24;120.85;;;51.97;;
62941;SDS011;49042;47.318;19.874;2024-01-30T01:31:26;97.68;;;47.10;;
62941;SDS011;49042;47.318;19.874;2024-01-30T01:34:31;108.85;;;48.92;;
62941;SDS011;49042;47.318;19.874;2024-01-30T01:37:33;123.13;;;54.78;;
62941;SDS011;49042;47.318;19.874;2024-01-30T01:40:34;372.25;;;129.63;;
62941;SDS011;49042;47.318;19.874;2024-01-30T01:43:36;400.42;;;138.93;;
62941;SDS011;49042;47.318;19.874;2024-01-30T01:46:40;175.48;;;70.53;;
62941;SDS011;49042;47.318;19.874;2024-01-30T01:49:42;113.12;;;49.88;;
62941;SDS011;49042;47.318;19.874;2024-01-30T01:52:44;74.28;;;37.90;;
62941;SDS011;49042;47.318;19.874;2024-01-30T01:55:52;70.30;;;37.97;;
62941;SDS011;49042;47.318;19.874;2024-01-30T01:58:55;94.72;;;49.17;;
62941;SDS011;49042;47.318;19.874;2024-01-30T02:01:56;134.85;;;66.30;;
62941;SDS011;49042;47.318;19.874;2024-01-30T02:04:58;138.80;;;65.35;;
62941;SDS011;49042;47.318;19.874;2024-01-30T02:08:01;102.82;;;51.60;;
62941;SDS011;49042;47.318;19.874;2024-01-30T02:11:03;118.93;;;60.10;;
62941;SDS011;49042;47.318;19.874;2024-01-30T02:14:05;104.07;;;53.65;;
62941;SDS011;49042;47.318;19.874;2024-01-30T02:17:06;92.28;;;48.35;;
62941;SDS011;49042;47.318;19.874;2024-01-30T02:20:08;101.07;;;52.30;;
62941;SDS011;49042;47.318;19.874;2024-01-30T02:23:11;106.28;;;53.47;;
62941;SDS011;49042;47.318;19.874;2024-01-30T02:26:13;120.13;;;54.92;;
62941;SDS011;49042;47.318;19.874;2024-01-30T02:29:15;123.28;;;57.92;;
62941;SDS011;49042;47.318;19.874;2024-01-30T02:32:17;126.43;;;60.40;;
62941;SDS011;49042;47.318;19.874;2024-01-30T02:35:19;118.87;;;55.75;;
62941;SDS011;49042;47.318;19.874;2024-01-30T02:38:20;101.32;;;52.62;;
62941;SDS011;49042;47.318;19.874;2024-01-30T02:41:22;116.78;;;54.13;;
62941;SDS011;49042;47.318;19.874;2024-01-30T02:44:24;132.45;;;57.65;;
62941;SDS011;49042;47.318;19.874;2024-01-30T02:47:26;146.27;;;64.97;;
62941;SDS011;49042;47.318;19.874;2024-01-30T02:50:28;143.48;;;58.30;;
62941;SDS011;49042;47.318;19.874;2024-01-30T02:53:29;114.72;;;54.97;;
62941;SDS011;49042;47.318;19.874;2024-01-30T02:56:31;122.05;;;54.25;;
62941;SDS011;49042;47.318;19.874;2024-01-30T02:59:33;96.60;;;48.45;;
62941;SDS011;49042;47.318;19.874;2024-01-30T03:02:37;134.95;;;62.95;;
62941;SDS011;49042;47.318;19.874;2024-01-30T03:05:39;150.02;;;67.35;;
62941;SDS011;49042;47.318;19.874;2024-01-30T03:08:40;119.05;;;54.17;;
62941;SDS011;49042;47.318;19.874;2024-01-30T03:11:42;104.53;;;51.10;;
62941;SDS011;49042;47.318;19.874;2024-01-30T03:14:44;85.93;;;46.83;;
62941;SDS011;49042;47.318;19.874;2024-01-30T03:17:46;99.70;;;51.85;;
62941;SDS011;49042;47.318;19.874;2024-01-30T03:20:47;125.28;;;62.00;;
62941;SDS011;49042;47.318;19.874;2024-01-30T03:23:49;106.28;;;52.60;;
62941;SDS011;49042;47.318;19.874;2024-01-30T03:26:51;106.32;;;58.00;;
62941;SDS011;49042;47.318;19.874;2024-01-30T03:29:52;102.07;;;53.87;;
62941;SDS011;49042;47.318;19.874;2024-01-30T03:32:54;102.60;;;53.20;;
62941;SDS011;49042;47.318;19.874;2024-01-30T03:35:56;94.20;;;49.58;;
62941;SDS011;49042;47.318;19.874;2024-01-30T03:38:58;87.30;;;46.33;;
62941;SDS011;49042;47.318;19.874;2024-01-30T03:42:00;101.85;;;54.50;;
62941;SDS011;49042;47.318;19.874;2024-01-30T03:45:01;104.50;;;54.70;;
62941;SDS011;49042;47.318;19.874;2024-01-30T03:48:03;111.03;;;56.70;;
62941;SDS011;49042;47.318;19.874;2024-01-30T03:51:06;95.40;;;52.60;;
62941;SDS011;49042;47.318;19.874;2024-01-30T03:54:07;105.85;;;56.10;;
62941;SDS011;49042;47.318;19.874;2024-01-30T03:57:09;104.10;;;58.85;;
62941;SDS011;49042;47.318;19.874;2024-01-30T04:00:11;110.50;;;57.08;;
62941;SDS011;49042;47.318;19.874;2024-01-30T04:03:16;102.00;;;52.78;;
62941;SDS011;49042;47.318;19.874;2024-01-30T04:06:18;110.53;;;60.00;;
62941;SDS011;49042;47.318;19.874;2024-01-30T04:09:19;106.40;;;57.47;;
62941;SDS011;49042;47.318;19.874;2024-01-30T04:12:21;108.07;;;60.58;;
62941;SDS011;49042;47.318;19.874;2024-01-30T04:15:23;108.65;;;58.83;;
62941;SDS011;49042;47.318;19.874;2024-01-30T04:18:24;105.22;;;54.78;;
62941;SDS011;49042;47.318;19.874;2024-01-30T04:21:26;102.15;;;57.38;;
62941;SDS011;49042;47.318;19.874;2024-01-30T04:24:28;107.07;;;57.20;;
62941;SDS011;49042;47.318;19.874;2024-01-30T04:27:29;98.57;;;54.28;;
62941;SDS011;49042;47.318;19.874;2024-01-30T04:30:31;110.50;;;55.95;;
62941;SDS011;49042;47.318;19.874;2024-01-30T04:33:33;111.60;;;57.72;;
62941;SDS011;49042;47.318;19.874;2024-01-30T04:36:35;122.60;;;61.17;;
62941;SDS011;49042;47.318;19.874;2024-01-30T04:39:37;126.65;;;61.78;;
62941;SDS011;49042;47.318;19.874;2024-01-30T04:42:39;113.62;;;55.75;;
62941;SDS011;49042;47.318;19.874;2024-01-30T04:45:41;112.00;;;57.15;;
62941;SDS011;49042;47.318;19.874;2024-01-30T04:48:43;154.43;;;73.87;;
62941;SDS011;49042;47.318;19.874;2024-01-30T04:51:44;118.37;;;54.45;;
62941;SDS011;49042;47.318;19.874;2024-01-30T04:54:46;99.32;;;48.40;;
62941;SDS011;49042;47.318;19.874;2024-01-30T04:57:48;116.53;;;53.20;;
62941;SDS011;49042;47.318;19.874;2024-01-30T05:00:50;122.20;;;55.40;;
62941;SDS011;49042;47.318;19.874;2024-01-30T05:03:53;112.18;;;53.15;;
62941;SDS011;49042;47.318;19.874;2024-01-30T05:06:55;115.28;;;54.13;;
62941;SDS011;49042;47.318;19.874;2024-01-30T05:09:57;112.60;;;53.38;;
62941;SDS011;49042;47.318;19.874;2024-01-30T05:13:00;111.47;;;53.28;;
62941;SDS011;49042;47.318;19.874;2024-01-30T05:16:02;108.75;;;56.28;;
62941;SDS011;49042;47.318;19.874;2024-01-30T05:19:05;104.53;;;56.30;;
62941;SDS011;49042;47.318;19.874;2024-01-30T05:22:07;101.53;;;50.72;;
62941;SDS011;49042;47.318;19.874;2024-01-30T05:25:09;90.35;;;46.10;;
62941;SDS011;49042;47.318;19.874;2024-01-30T05:28:11;106.37;;;48.80;;
62941;SDS011;49042;47.318;19.874;2024-01-30T05:31:12;91.63;;;44.97;;
62941;SDS011;49042;47.318;19.874;2024-01-30T05:34:14;97.28;;;45.55;;
62941;SDS011;49042;47.318;19.874;2024-01-30T05:37:16;96.53;;;47.08;;
62941;SDS011;49042;47.318;19.874;2024-01-30T05:40:19;90.95;;;48.40;;
62941;SDS011;49042;47.318;19.874;2024-01-30T05:43:21;97.55;;;47.83;;
62941;SDS011;49042;47.318;19.874;2024-01-30T05:46:23;94.97;;;45.20;;
62941;SDS011;49042;47.318;19.874;2024-01-30T05:49:26;99.35;;;50.35;;
62941;SDS011;49042;47.318;19.874;2024-01-30T05:52:28;99.28;;;51.65;;
62941;SDS011;49042;47.318;19.874;2024-01-30T05:55:29;97.35;;;48.95;;
62941;SDS011;49042;47.318;19.874;2024-01-30T05:58:31;103.35;;;54.30;;
62941;SDS011;49042;47.318;19.874;2024-01-30T06:01:33;106.68;;;52.20;;
62941;SDS011;49042;47.318;19.874;2024-01-30T06:04:36;98.95;;;50.70;;
62941;SDS011;49042;47.318;19.874;2024-01-30T06:07:38;95.62;;;48.90;;
62941;SDS011;49042;47.318;19.874;2024-01-30T06:10:40;86.90;;;49.60;;
62941;SDS011;49042;47.318;19.874;2024-01-30T06:13:42;87.65;;;46.70;;
62941;SDS011;49042;47.318;19.874;2024-01-30T06:16:43;94.65;;;48.58;;
62941;SDS011;49042;47.318;19.874;2024-01-30T06:19:45;89.15;;;45.60;;
62941;SDS011;49042;47.318;19.874;2024-01-30T06:22:47;95.05;;;49.83;;
62941;SDS011;49042;47.318;19.874;2024-01-30T06:25:49;94.80;;;48.35;;
62941;SDS011;49042;47.318;19.874;2024-01-30T06:28:50;91.45;;;47.35;;
62941;SDS011;49042;47.318;19.874;2024-01-30T06:31:52;104.12;;;52.53;;
62941;SDS011;49042;47.318;19.874;2024-01-30T06:34:54;135.18;;;62.97;;
62941;SDS011;49042;47.318;19.874;2024-01-30T06:37:56;135.50;;;65.47;;
62941;SDS011;49042;47.318;19.874;2024-01-30T06:40:57;159.98;;;70.87;;
62941;SDS011;49042;47.318;19.874;2024-01-30T06:43:59;147.73;;;65.70;;
62941;SDS011;49042;47.318;19.874;2024-01-30T06:47:01;128.02;;;58.35;;
62941;SDS011;49042;47.318;19.874;2024-01-30T06:50:02;107.45;;;51.63;;
62941;SDS011;49042;47.318;19.874;2024-01-30T06:53:05;124.20;;;58.08;;
62941;SDS011;49042;47.318;19.874;2024-01-30T06:56:06;140.55;;;63.97;;
62941;SDS011;49042;47.318;19.874;2024-01-30T06:59:09;123.95;;;56.22;;
62941;SDS011;49042;47.318;19.874;2024-01-30T07:02:10;114.57;;;57.42;;
62941;SDS011;49042;47.318;19.874;2024-01-30T07:05:13;133.30;;;62.90;;
62941;SDS011;49042;47.318;19.874;2024-01-30T07:08:16;166.12;;;79.05;;
62941;SDS011;49042;47.318;19.874;2024-01-30T07:11:20;166.23;;;80.70;;
62941;SDS011;49042;47.318;19.874;2024-01-30T07:14:23;140.07;;;67.93;;
62941;SDS011;49042;47.318;19.874;2024-01-30T07:17:26;148.30;;;74.53;;
62941;SDS011;49042;47.318;19.874;2024-01-30T07:20:27;145.85;;;75.40;;
62941;SDS011;49042;47.318;19.874;2024-01-30T07:23:32;138.07;;;70.60;;
62941;SDS011;49042;47.318;19.874;2024-01-30T07:26:35;141.35;;;72.90;;
62941;SDS011;49042;47.318;19.874;2024-01-30T07:29:37;132.05;;;64.95;;
62941;SDS011;49042;47.318;19.874;2024-01-30T07:32:39;122.78;;;61.37;;
62941;SDS011;49042;47.318;19.874;2024-01-30T07:35:40;127.57;;;61.50;;
62941;SDS011;49042;47.318;19.874;2024-01-30T07:38:42;117.07;;;57.17;;
62941;SDS011;49042;47.318;19.874;2024-01-30T07:41:44;111.37;;;56.97;;
62941;SDS011;49042;47.318;19.874;2024-01-30T07:44:46;110.50;;;53.10;;
62941;SDS011;49042;47.318;19.874;2024-01-30T07:47:50;100.12;;;52.25;;
62941;SDS011;49042;47.318;19.874;2024-01-30T07:50:52;104.57;;;51.05;;
62941;SDS011;49042;47.318;19.874;2024-01-30T07:53:54;100.62;;;49.95;;
62941;SDS011;49042;47.318;19.874;2024-01-30T07:56:56;101.47;;;48.15;;
62941;SDS011;49042;47.318;19.874;2024-01-30T07:59:58;94.60;;;46.00;;
62941;SDS011;49042;47.318;19.874;2024-01-30T08:03:00;87.15;;;45.12;;
62941;SDS011;49042;47.318;19.874;2024-01-30T08:06:01;88.62;;;47.97;;
62941;SDS011;49042;47.318;19.874;2024-01-30T08:09:03;88.68;;;47.72;;
62941;SDS011;49042;47.318;19.874;2024-01-30T08:12:06;71.65;;;39.35;;
62941;SDS011;49042;47.318;19.874;2024-01-30T08:15:08;69.10;;;37.88;;
62941;SDS011;49042;47.318;19.874;2024-01-30T08:18:10;68.70;;;39.08;;
62941;SDS011;49042;47.318;19.874;2024-01-30T08:21:12;46.65;;;28.08;;
62941;SDS011;49042;47.318;19.874;2024-01-30T08:24:14;51.03;;;31.52;;
62941;SDS011;49042;47.318;19.874;2024-01-30T08:27:15;42.53;;;27.05;;
62941;SDS011;49042;47.318;19.874;2024-01-30T08:30:17;47.95;;;25.90;;
62941;SDS011;49042;47.318;19.874;2024-01-30T08:33:19;47.08;;;28.45;;
62941;SDS011;49042;47.318;19.874;2024-01-30T08:36:21;43.22;;;26.98;;
62941;SDS011;49042;47.318;19.874;2024-01-30T08:39:22;44.92;;;25.80;;
62941;SDS011;49042;47.318;19.874;2024-01-30T08:42:24;46.60;;;31.65;;
62941;SDS011;49042;47.318;19.874;2024-01-30T08:45:26;45.95;;;27.52;;
62941;SDS011;49042;47.318;19.874;2024-01-30T08:48:28;45.58;;;26.60;;
62941;SDS011;49042;47.318;19.874;2024-01-30T08:51:30;44.08;;;27.67;;
62941;SDS011;49042;47.318;19.874;2024-01-30T08:54:32;52.08;;;30.55;;
62941;SDS011;49042;47.318;19.874;2024-01-30T08:57:35;56.10;;;30.15;;
62941;SDS011;49042;47.318;19.874;2024-01-30T09:00:37;52.85;;;30.62;;
62941;SDS011;49042;47.318;19.874;2024-01-30T09:03:39;55.33;;;33.15;;
62941;SDS011;49042;47.318;19.874;2024-01-30T09:06:42;55.12;;;32.63;;
62941;SDS011;49042;47.318;19.874;2024-01-30T09:09:44;56.80;;;32.60;;
62941;SDS011;49042;47.318;19.874;2024-01-30T09:12:46;57.08;;;33.83;;
62941;SDS011;49042;47.318;19.874;2024-01-30T09:15:48;59.50;;;34.60;;
62941;SDS011;49042;47.318;19.874;2024-01-30T09:18:50;63.20;;;35.90;;
62941;SDS011;49042;47.318;19.874;2024-01-30T09:21:52;65.37;;;36.88;;
62941;SDS011;49042;47.318;19.874;2024-01-30T09:24:54;52.30;;;30.88;;
62941;SDS011;49042;47.318;19.874;2024-01-30T09:27:56;63.30;;;33.47;;
62941;SDS011;49042;47.318;19.874;2024-01-30T09:30:57;58.55;;;31.77;;
62941;SDS011;49042;47.318;19.874;2024-01-30T09:33:59;56.17;;;26.00;;
62941;SDS011;49042;47.318;19.874;2024-01-30T09:37:01;57.97;;;29.25;;
62941;SDS011;49042;47.318;19.874;2024-01-30T09:40:04;62.55;;;29.10;;
62941;SDS011;49042;47.318;19.874;2024-01-30T09:43:06;64.00;;;32.15;;
62941;SDS011;49042;47.318;19.874;2024-01-30T09:46:11;66.03;;;31.83;;
62941;SDS011;49042;47.318;19.874;2024-01-30T09:49:14;55.17;;;28.83;;
62941;SDS011;49042;47.318;19.874;2024-01-30T09:52:20;51.83;;;26.45;;
62941;SDS011;49042;47.318;19.874;2024-01-30T09:55:22;52.70;;;27.67;;
62941;SDS011;49042;47.318;19.874;2024-01-30T09:58:24;52.35;;;26.23;;
62941;SDS011;49042;47.318;19.874;2024-01-30T10:01:27;50.88;;;27.15;;
62941;SDS011;49042;47.318;19.874;2024-01-30T10:04:29;65.03;;;26.95;;
62941;SDS011;49042;47.318;19.874;2024-01-30T10:07:31;52.72;;;25.95;;
62941;SDS011;49042;47.318;19.874;2024-01-30T10:10:33;96.25;;;54.50;;
62941;SDS011;49042;47.318;19.874;2024-01-30T10:13:36;55.80;;;28.40;;
62941;SDS011;49042;47.318;19.874;2024-01-30T10:16:40;55.28;;;25.67;;
62941;SDS011;49042;47.318;19.874;2024-01-30T10:19:42;52.50;;;25.77;;
62941;SDS011;49042;47.318;19.874;2024-01-30T10:22:44;58.75;;;24.37;;
62941;SDS011;49042;47.318;19.874;2024-01-30T10:25:47;50.05;;;26.90;;
62941;SDS011;49042;47.318;19.874;2024-01-30T10:28:49;54.50;;;25.85;;
62941;SDS011;49042;47.318;19.874;2024-01-30T10:31:58;53.25;;;27.67;;
62941;SDS011;49042;47.318;19.874;2024-01-30T10:35:01;60.78;;;25.67;;
62941;SDS011;49042;47.318;19.874;2024-01-30T10:38:03;61.33;;;31.23;;
62941;SDS011;49042;47.318;19.874;2024-01-30T10:41:07;65.85;;;33.85;;
62941;SDS011;49042;47.318;19.874;2024-01-30T10:44:10;122.03;;;58.83;;
62941;SDS011;49042;47.318;19.874;2024-01-30T10:47:12;119.05;;;58.87;;
62941;SDS011;49042;47.318;19.874;2024-01-30T10:50:19;55.85;;;29.35;;
62941;SDS011;49042;47.318;19.874;2024-01-30T10:53:22;54.72;;;28.77;;
62941;SDS011;49042;47.318;19.874;2024-01-30T10:56:25;56.50;;;27.27;;
62941;SDS011;49042;47.318;19.874;2024-01-30T10:59:27;47.17;;;24.10;;
62941;SDS011;49042;47.318;19.874;2024-01-30T11:02:29;47.22;;;24.20;;
62941;SDS011;49042;47.318;19.874;2024-01-30T11:05:32;50.45;;;26.55;;
62941;SDS011;49042;47.318;19.874;2024-01-30T11:08:34;48.20;;;24.73;;
62941;SDS011;49042;47.318;19.874;2024-01-30T11:11:56;48.28;;;26.58;;
62941;SDS011;49042;47.318;19.874;2024-01-30T11:15:06;56.13;;;29.15;;
62941;SDS011;49042;47.318;19.874;2024-01-30T11:21:12;57.70;;;27.60;;
62941;SDS011;49042;47.318;19.874;2024-01-30T11:24:15;54.20;;;26.90;;
62941;SDS011;49042;47.318;19.874;2024-01-30T11:27:17;50.97;;;26.70;;
62941;SDS011;49042;47.318;19.874;2024-01-30T11:30:26;53.58;;;29.40;;
62941;SDS011;49042;47.318;19.874;2024-01-30T11:33:29;60.85;;;30.60;;
62941;SDS011;49042;47.318;19.874;2024-01-30T11:36:35;65.60;;;34.33;;
62941;SDS011;49042;47.318;19.874;2024-01-30T11:39:38;65.03;;;35.35;;
62941;SDS011;49042;47.318;19.874;2024-01-30T11:42:42;67.35;;;39.28;;
62941;SDS011;49042;47.318;19.874;2024-01-30T11:45:45;54.72;;;30.37;;
62941;SDS011;49042;47.318;19.874;2024-01-30T11:48:47;45.65;;;27.27;;
62941;SDS011;49042;47.318;19.874;2024-01-30T11:51:49;66.22;;;34.70;;
62941;SDS011;49042;47.318;19.874;2024-01-30T11:54:52;53.28;;;28.05;;
62941;SDS011;49042;47.318;19.874;2024-01-30T11:57:55;60.58;;;33.28;;
62941;SDS011;49042;47.318;19.874;2024-01-30T12:00:57;49.97;;;28.20;;
62941;SDS011;49042;47.318;19.874;2024-01-30T12:03:59;52.85;;;25.83;;
62941;SDS011;49042;47.318;19.874;2024-01-30T12:07:01;51.80;;;27.10;;
62941;SDS011;49042;47.318;19.874;2024-01-30T12:10:05;51.13;;;26.35;;
62941;SDS011;49042;47.318;19.874;2024-01-30T12:13:07;45.97;;;24.02;;
62941;SDS011;49042;47.318;19.874;2024-01-30T12:16:09;48.90;;;24.98;;
62941;SDS011;49042;47.318;19.874;2024-01-30T12:19:11;50.17;;;26.37;;
62941;SDS011;49042;47.318;19.874;2024-01-30T12:22:22;44.80;;;24.55;;
62941;SDS011;49042;47.318;19.874;2024-01-30T12:25:24;50.20;;;26.00;;
62941;SDS011;49042;47.318;19.874;2024-01-30T12:28:26;48.22;;;25.35;;
62941;SDS011;49042;47.318;19.874;2024-01-30T12:31:28;56.95;;;27.10;;
62941;SDS011;49042;47.318;19.874;2024-01-30T12:34:30;50.17;;;25.80;;
62941;SDS011;49042;47.318;19.874;2024-01-30T12:37:36;47.78;;;26.00;;
62941;SDS011;49042;47.318;19.874;2024-01-30T12:40:38;56.78;;;29.35;;
62941;SDS011;49042;47.318;19.874;2024-01-30T12:43:42;48.83;;;25.15;;
62941;SDS011;49042;47.318;19.874;2024-01-30T12:46:44;60.40;;;34.72;;
62941;SDS011;49042;47.318;19.874;2024-01-30T12:49:49;52.85;;;28.17;;
62941;SDS011;49042;47.318;19.874;2024-01-30T12:52:54;66.78;;;39.67;;
62941;SDS011;49042;47.318;19.874;2024-01-30T12:55:57;52.40;;;27.20;;
62941;SDS011;49042;47.318;19.874;2024-01-30T12:58:59;51.65;;;26.92;;
62941;SDS011;49042;47.318;19.874;2024-01-30T13:02:01;53.10;;;31.92;;
62941;SDS011;49042;47.318;19.874;2024-01-30T13:05:04;76.82;;;45.45;;
62941;SDS011;49042;47.318;19.874;2024-01-30T13:08:06;85.28;;;51.00;;
62941;SDS011;49042;47.318;19.874;2024-01-30T13:11:08;55.12;;;33.47;;
62941;SDS011;49042;47.318;19.874;2024-01-30T13:14:21;37.17;;;23.02;;
62941;SDS011;49042;47.318;19.874;2024-01-30T13:17:23;41.15;;;24.45;;
62941;SDS011;49042;47.318;19.874;2024-01-30T13:20:25;53.05;;;28.35;;
62941;SDS011;49042;47.318;19.874;2024-01-30T13:23:27;48.03;;;26.55;;
62941;SDS011;49042;47.318;19.874;2024-01-30T13:26:28;55.97;;;27.00;;
62941;SDS011;49042;47.318;19.874;2024-01-30T13:29:32;55.72;;;26.60;;
62941;SDS011;49042;47.318;19.874;2024-01-30T13:32:34;52.40;;;26.02;;
62941;SDS011;49042;47.318;19.874;2024-01-30T13:35:35;59.75;;;33.95;;
62941;SDS011;49042;47.318;19.874;2024-01-30T13:38:38;62.00;;;33.38;;
62941;SDS011;49042;47.318;19.874;2024-01-30T13:41:43;59.17;;;31.30;;
62941;SDS011;49042;47.318;19.874;2024-01-30T13:44:45;55.65;;;30.05;;
62941;SDS011;49042;47.318;19.874;2024-01-30T13:47:47;58.20;;;32.10;;
62941;SDS011;49042;47.318;19.874;2024-01-30T13:50:49;59.40;;;30.25;;
62941;SDS011;49042;47.318;19.874;2024-01-30T13:53:51;67.75;;;32.28;;
62941;SDS011;49042;47.318;19.874;2024-01-30T13:56:53;61.70;;;31.42;;
62941;SDS011;49042;47.318;19.874;2024-01-30T13:59:54;73.37;;;33.13;;
62941;SDS011;49042;47.318;19.874;2024-01-30T14:02:56;70.32;;;30.73;;
62941;SDS011;49042;47.318;19.874;2024-01-30T14:06:00;74.53;;;37.20;;
62941;SDS011;49042;47.318;19.874;2024-01-30T14:09:02;82.47;;;28.42;;
62941;SDS011;49042;47.318;19.874;2024-01-30T14:12:09;80.07;;;34.95;;
62941;SDS011;49042;47.318;19.874;2024-01-30T14:15:11;207.45;;;30.50;;
62941;SDS011;49042;47.318;19.874;2024-01-30T14:18:27;122.62;;;31.15;;
62941;SDS011;49042;47.318;19.874;2024-01-30T14:21:29;118.10;;;31.65;;
62941;SDS011;49042;47.318;19.874;2024-01-30T14:24:31;192.60;;;29.30;;
62941;SDS011;49042;47.318;19.874;2024-01-30T14:27:33;124.80;;;30.40;;
62941;SDS011;49042;47.318;19.874;2024-01-30T14:30:34;77.57;;;30.12;;
62941;SDS011;49042;47.318;19.874;2024-01-30T14:33:37;148.32;;;37.55;;
62941;SDS011;49042;47.318;19.874;2024-01-30T14:36:41;167.37;;;27.62;;
62941;SDS011;49042;47.318;19.874;2024-01-30T14:39:43;117.70;;;27.73;;
62941;SDS011;49042;47.318;19.874;2024-01-30T14:42:44;123.95;;;42.78;;
62941;SDS011;49042;47.318;19.874;2024-01-30T14:45:47;185.93;;;64.25;;
62941;SDS011;49042;47.318;19.874;2024-01-30T14:48:50;138.75;;;33.75;;
62941;SDS011;49042;47.318;19.874;2024-01-30T14:51:53;177.23;;;33.90;;
62941;SDS011;49042;47.318;19.874;2024-01-30T14:54:55;189.15;;;38.50;;
62941;SDS011;49042;47.318;19.874;2024-01-30T14:57:57;233.27;;;39.25;;
62941;SDS011;49042;47.318;19.874;2024-01-30T15:01:00;236.73;;;46.28;;
62941;SDS011;49042;47.318;19.874;2024-01-30T15:04:02;244.20;;;47.13;;
62941;SDS011;49042;47.318;19.874;2024-01-30T15:07:04;240.68;;;42.15;;
62941;SDS011;49042;47.318;19.874;2024-01-30T15:10:07;172.05;;;59.50;;
62941;SDS011;49042;47.318;19.874;2024-01-30T15:13:12;253.80;;;49.90;;
62941;SDS011;49042;47.318;19.874;2024-01-30T15:16:14;184.95;;;44.63;;
62941;SDS011;49042;47.318;19.874;2024-01-30T15:19:16;188.18;;;70.62;;
62941;SDS011;49042;47.318;19.874;2024-01-30T15:22:18;162.50;;;47.65;;
62941;SDS011;49042;47.318;19.874;2024-01-30T15:25:20;191.02;;;48.80;;
62941;SDS011;49042;47.318;19.874;2024-01-30T15:28:38;172.30;;;73.22;;
62941;SDS011;49042;47.318;19.874;2024-01-30T15:31:40;187.48;;;70.32;;
62941;SDS011;49042;47.318;19.874;2024-01-30T15:34:42;212.07;;;92.95;;
62941;SDS011;49042;47.318;19.874;2024-01-30T15:37:44;303.75;;;112.57;;
62941;SDS011;49042;47.318;19.874;2024-01-30T15:40:46;278.27;;;110.55;;
62941;SDS011;49042;47.318;19.874;2024-01-30T15:43:47;452.10;;;159.05;;
62941;SDS011;49042;47.318;19.874;2024-01-30T15:46:49;327.92;;;111.45;;
62941;SDS011;49042;47.318;19.874;2024-01-30T15:49:51;875.95;;;277.10;;
62941;SDS011;49042;47.318;19.874;2024-01-30T15:52:53;726.87;;;258.23;;
62941;SDS011;49042;47.318;19.874;2024-01-30T15:55:55;632.42;;;226.40;;
62941;SDS011;49042;47.318;19.874;2024-01-30T15:58:56;654.80;;;217.80;;
62941;SDS011;49042;47.318;19.874;2024-01-30T16:01:58;595.97;;;203.82;;
62941;SDS011;49042;47.318;19.874;2024-01-30T16:05:00;495.80;;;146.57;;
62941;SDS011;49042;47.318;19.874;2024-01-30T16:08:04;420.23;;;136.15;;
62941;SDS011;49042;47.318;19.874;2024-01-30T16:11:06;322.58;;;114.68;;
62941;SDS011;49042;47.318;19.874;2024-01-30T16:14:07;222.37;;;73.97;;
62941;SDS011;49042;47.318;19.874;2024-01-30T16:17:09;201.73;;;64.15;;
62941;SDS011;49042;47.318;19.874;2024-01-30T16:20:11;99.53;;;44.83;;
62941;SDS011;49042;47.318;19.874;2024-01-30T16:23:16;219.30;;;80.07;;
62941;SDS011;49042;47.318;19.874;2024-01-30T16:26:18;281.90;;;92.30;;
62941;SDS011;49042;47.318;19.874;2024-01-30T16:29:20;290.35;;;90.65;;
62941;SDS011;49042;47.318;19.874;2024-01-30T16:32:22;200.50;;;79.12;;
62941;SDS011;49042;47.318;19.874;2024-01-30T16:35:24;184.05;;;74.18;;
62941;SDS011;49042;47.318;19.874;2024-01-30T16:38:46;164.62;;;64.50;;
62941;SDS011;49042;47.318;19.874;2024-01-30T16:41:48;155.85;;;64.15;;
62941;SDS011;49042;47.318;19.874;2024-01-30T16:44:50;144.50;;;58.63;;
62941;SDS011;49042;47.318;19.874;2024-01-30T16:47:52;159.25;;;65.07;;
62941;SDS011;49042;47.318;19.874;2024-01-30T16:50:54;161.30;;;65.25;;
62941;SDS011;49042;47.318;19.874;2024-01-30T16:53:56;163.77;;;70.28;;
62941;SDS011;49042;47.318;19.874;2024-01-30T16:56:58;159.25;;;66.55;;
62941;SDS011;49042;47.318;19.874;2024-01-30T17:00:00;163.20;;;63.92;;
62941;SDS011;49042;47.318;19.874;2024-01-30T17:03:01;202.98;;;76.40;;
62941;SDS011;49042;47.318;19.874;2024-01-30T17:06:05;197.50;;;79.60;;
62941;SDS011;49042;47.318;19.874;2024-01-30T17:09:09;181.30;;;75.62;;
62941;SDS011;49042;47.318;19.874;2024-01-30T17:12:16;187.50;;;75.07;;
62941;SDS011;49042;47.318;19.874;2024-01-30T17:15:18;176.77;;;72.43;;
62941;SDS011;49042;47.318;19.874;2024-01-30T17:18:20;155.57;;;66.82;;
62941;SDS011;49042;47.318;19.874;2024-01-30T17:21:22;150.45;;;61.47;;
62941;SDS011;49042;47.318;19.874;2024-01-30T17:24:24;155.12;;;61.15;;
62941;SDS011;49042;47.318;19.874;2024-01-30T17:27:38;138.20;;;58.75;;